sensor_id;sensor_type;location;lat;lon;timestamp;P1;durP1;ratioP1;P2;durP2;ratioP2
10343;SDS011;5217;43.960;10.954;2024-01-15T00:00:18;12.10;;;10.80;;
10343;SDS011;5217;43.960;10.954;2024-01-15T00:02:48;10.43;;;9.37;;
10343;SDS011;5217;43.960;10.954;2024-01-15T00:05:18;10.50;;;9.60;;
10343;SDS011;5217;43.960;10.954;2024-01-15T00:07:46;11.43;;;10.37;;
10343;SDS011;5217;43.960;10.954;2024-01-15T00:10:15;11.40;;;10.30;;
10343;SDS011;5217;43.960;10.954;2024-01-15T00:12:44;10.93;;;9.93;;
10343;SDS011;5217;43.960;10.954;2024-01-15T00:15:13;11.57;;;10.37;;
10343;SDS011;5217;43.960;10.954;2024-01-15T00:17:42;11.63;;;10.53;;
10343;SDS011;5217;43.960;10.954;2024-01-15T00:20:11;11.43;;;10.40;;
10343;SDS011;5217;43.960;10.954;2024-01-15T00:22:42;12.90;;;11.50;;
10343;SDS011;5217;43.960;10.954;2024-01-15T00:25:10;11.53;;;10.33;;
10343;SDS011;5217;43.960;10.954;2024-01-15T00:27:39;12.53;;;11.00;;
10343;SDS011;5217;43.960;10.954;2024-01-15T00:30:17;11.57;;;10.37;;
10343;SDS011;5217;43.960;10.954;2024-01-15T00:35:19;12.90;;;10.20;;
10343;SDS011;5217;43.960;10.954;2024-01-15T00:37:49;11.33;;;10.17;;
10343;SDS011;5217;43.960;10.954;2024-01-15T00:40:17;11.80;;;10.60;;
10343;SDS011;5217;43.960;10.954;2024-01-15T00:42:46;10.67;;;9.67;;
10343;SDS011;5217;43.960;10.954;2024-01-15T00:45:15;10.00;;;8.80;;
10343;SDS011;5217;43.960;10.954;2024-01-15T00:47:44;9.00;;;8.10;;
10343;SDS011;5217;43.960;10.954;2024-01-15T00:50:13;8.97;;;8.03;;
10343;SDS011;5217;43.960;10.954;2024-01-15T00:52:45;8.03;;;7.20;;
10343;SDS011;5217;43.960;10.954;2024-01-15T00:55:15;8.47;;;7.57;;
10343;SDS011;5217;43.960;10.954;2024-01-15T00:57:47;7.60;;;6.80;;
10343;SDS011;5217;43.960;10.954;2024-01-15T01:00:25;7.60;;;6.90;;
10343;SDS011;5217;43.960;10.954;2024-01-15T01:02:54;7.00;;;6.20;;
10343;SDS011;5217;43.960;10.954;2024-01-15T01:05:24;7.43;;;6.70;;
10343;SDS011;5217;43.960;10.954;2024-01-15T01:07:53;7.80;;;6.90;;
10343;SDS011;5217;43.960;10.954;2024-01-15T01:10:22;7.20;;;6.40;;
10343;SDS011;5217;43.960;10.954;2024-01-15T01:12:51;6.20;;;5.70;;
10343;SDS011;5217;43.960;10.954;2024-01-15T01:15:20;6.40;;;5.80;;
10343;SDS011;5217;43.960;10.954;2024-01-15T01:17:49;6.80;;;6.07;;
10343;SDS011;5217;43.960;10.954;2024-01-15T01:20:18;5.50;;;5.00;;
10343;SDS011;5217;43.960;10.954;2024-01-15T01:22:47;7.00;;;6.30;;
10343;SDS011;5217;43.960;10.954;2024-01-15T01:25:15;7.50;;;6.70;;
10343;SDS011;5217;43.960;10.954;2024-01-15T01:27:46;5.90;;;5.30;;
10343;SDS011;5217;43.960;10.954;2024-01-15T01:30:14;6.07;;;5.47;;
10343;SDS011;5217;43.960;10.954;2024-01-15T01:32:43;5.73;;;5.00;;
10343;SDS011;5217;43.960;10.954;2024-01-15T01:35:12;5.13;;;4.13;;
10343;SDS011;5217;43.960;10.954;2024-01-15T01:37:41;5.17;;;4.27;;
10343;SDS011;5217;43.960;10.954;2024-01-15T01:40:10;6.37;;;4.30;;
10343;SDS011;5217;43.960;10.954;2024-01-15T01:42:38;4.40;;;4.00;;
10343;SDS011;5217;43.960;10.954;2024-01-15T01:45:11;4.53;;;3.20;;
10343;SDS011;5217;43.960;10.954;2024-01-15T01:47:40;3.97;;;3.40;;
10343;SDS011;5217;43.960;10.954;2024-01-15T01:50:10;3.30;;;3.00;;
10343;SDS011;5217;43.960;10.954;2024-01-15T01:52:40;3.43;;;3.13;;
10343;SDS011;5217;43.960;10.954;2024-01-15T01:55:10;3.77;;;2.83;;
10343;SDS011;5217;43.960;10.954;2024-01-15T01:57:40;4.33;;;3.13;;
10343;SDS011;5217;43.960;10.954;2024-01-15T02:00:12;3.50;;;3.00;;
10343;SDS011;5217;43.960;10.954;2024-01-15T02:02:41;3.40;;;2.87;;
10343;SDS011;5217;43.960;10.954;2024-01-15T02:05:11;3.60;;;3.10;;
10343;SDS011;5217;43.960;10.954;2024-01-15T02:07:41;2.93;;;2.73;;
10343;SDS011;5217;43.960;10.954;2024-01-15T02:10:11;3.20;;;2.90;;
10343;SDS011;5217;43.960;10.954;2024-01-15T02:12:40;3.83;;;2.70;;
10343;SDS011;5217;43.960;10.954;2024-01-15T02:15:11;2.83;;;2.50;;
10343;SDS011;5217;43.960;10.954;2024-01-15T02:20:28;3.47;;;2.60;;
10343;SDS011;5217;43.960;10.954;2024-01-15T02:23:10;2.70;;;2.50;;
10343;SDS011;5217;43.960;10.954;2024-01-15T02:25:42;3.27;;;2.90;;
10343;SDS011;5217;43.960;10.954;2024-01-15T02:28:12;3.50;;;2.83;;
10343;SDS011;5217;43.960;10.954;2024-01-15T02:30:42;2.97;;;2.37;;
10343;SDS011;5217;43.960;10.954;2024-01-15T02:33:11;3.10;;;2.80;;
10343;SDS011;5217;43.960;10.954;2024-01-15T02:35:41;2.47;;;2.27;;
10343;SDS011;5217;43.960;10.954;2024-01-15T02:38:11;4.47;;;2.40;;
10343;SDS011;5217;43.960;10.954;2024-01-15T02:40:39;3.60;;;2.27;;
10343;SDS011;5217;43.960;10.954;2024-01-15T02:43:08;3.33;;;2.40;;
10343;SDS011;5217;43.960;10.954;2024-01-15T02:45:37;3.77;;;2.60;;
10343;SDS011;5217;43.960;10.954;2024-01-15T02:48:06;2.40;;;2.20;;
10343;SDS011;5217;43.960;10.954;2024-01-15T02:50:34;2.77;;;2.30;;
10343;SDS011;5217;43.960;10.954;2024-01-15T02:53:03;3.33;;;2.77;;
10343;SDS011;5217;43.960;10.954;2024-01-15T02:55:34;3.30;;;2.93;;
10343;SDS011;5217;43.960;10.954;2024-01-15T02:58:05;3.90;;;3.60;;
10343;SDS011;5217;43.960;10.954;2024-01-15T03:00:38;4.73;;;4.23;;
10343;SDS011;5217;43.960;10.954;2024-01-15T03:03:06;5.00;;;4.60;;
10343;SDS011;5217;43.960;10.954;2024-01-15T03:05:35;4.27;;;3.90;;
10343;SDS011;5217;43.960;10.954;2024-01-15T03:08:04;4.77;;;4.30;;
10343;SDS011;5217;43.960;10.954;2024-01-15T03:10:34;4.60;;;4.20;;
10343;SDS011;5217;43.960;10.954;2024-01-15T03:13:03;5.00;;;4.10;;
10343;SDS011;5217;43.960;10.954;2024-01-15T03:15:31;4.53;;;4.13;;
10343;SDS011;5217;43.960;10.954;2024-01-15T03:18:00;3.90;;;3.60;;
10343;SDS011;5217;43.960;10.954;2024-01-15T03:20:28;4.17;;;3.77;;
10343;SDS011;5217;43.960;10.954;2024-01-15T03:22:57;3.97;;;3.67;;
10343;SDS011;5217;43.960;10.954;2024-01-15T03:25:26;4.57;;;4.17;;
10343;SDS011;5217;43.960;10.954;2024-01-15T03:27:56;4.80;;;4.40;;
10343;SDS011;5217;43.960;10.954;2024-01-15T03:30:24;4.80;;;4.40;;
10343;SDS011;5217;43.960;10.954;2024-01-15T03:35:33;4.40;;;4.00;;
10343;SDS011;5217;43.960;10.954;2024-01-15T03:38:02;4.40;;;4.00;;
10343;SDS011;5217;43.960;10.954;2024-01-15T03:40:31;4.00;;;3.57;;
10343;SDS011;5217;43.960;10.954;2024-01-15T03:43:00;4.00;;;3.70;;
10343;SDS011;5217;43.960;10.954;2024-01-15T03:45:28;4.00;;;3.60;;
10343;SDS011;5217;43.960;10.954;2024-01-15T03:47:56;4.27;;;3.70;;
10343;SDS011;5217;43.960;10.954;2024-01-15T03:50:26;3.67;;;3.37;;
10343;SDS011;5217;43.960;10.954;2024-01-15T03:52:56;3.50;;;3.20;;
10343;SDS011;5217;43.960;10.954;2024-01-15T03:55:24;3.37;;;3.07;;
10343;SDS011;5217;43.960;10.954;2024-01-15T03:57:53;3.47;;;2.90;;
10343;SDS011;5217;43.960;10.954;2024-01-15T04:00:22;4.77;;;3.30;;
10343;SDS011;5217;43.960;10.954;2024-01-15T04:02:50;2.90;;;2.70;;
10343;SDS011;5217;43.960;10.954;2024-01-15T04:05:20;3.87;;;3.00;;
10343;SDS011;5217;43.960;10.954;2024-01-15T04:07:49;4.37;;;2.73;;
10343;SDS011;5217;43.960;10.954;2024-01-15T04:10:19;3.40;;;3.00;;
10343;SDS011;5217;43.960;10.954;2024-01-15T04:12:47;3.03;;;2.67;;
10343;SDS011;5217;43.960;10.954;2024-01-15T04:15:16;3.93;;;2.70;;
10343;SDS011;5217;43.960;10.954;2024-01-15T04:17:45;3.20;;;2.57;;
10343;SDS011;5217;43.960;10.954;2024-01-15T04:20:13;2.50;;;2.30;;
10343;SDS011;5217;43.960;10.954;2024-01-15T04:22:43;5.10;;;2.97;;
10343;SDS011;5217;43.960;10.954;2024-01-15T04:25:11;3.87;;;2.70;;
10343;SDS011;5217;43.960;10.954;2024-01-15T04:27:41;3.13;;;2.53;;
10343;SDS011;5217;43.960;10.954;2024-01-15T04:30:10;3.20;;;2.73;;
10343;SDS011;5217;43.960;10.954;2024-01-15T04:32:40;4.30;;;2.60;;
10343;SDS011;5217;43.960;10.954;2024-01-15T04:35:08;2.53;;;2.33;;
10343;SDS011;5217;43.960;10.954;2024-01-15T04:37:37;2.50;;;2.30;;
10343;SDS011;5217;43.960;10.954;2024-01-15T04:40:06;4.40;;;2.33;;
10343;SDS011;5217;43.960;10.954;2024-01-15T04:42:35;2.57;;;2.37;;
10343;SDS011;5217;43.960;10.954;2024-01-15T04:45:06;3.33;;;2.70;;
10343;SDS011;5217;43.960;10.954;2024-01-15T04:47:35;2.93;;;2.20;;
10343;SDS011;5217;43.960;10.954;2024-01-15T04:50:03;2.20;;;2.00;;
10343;SDS011;5217;43.960;10.954;2024-01-15T04:52:33;2.87;;;2.10;;
10343;SDS011;5217;43.960;10.954;2024-01-15T04:55:01;3.30;;;2.40;;
10343;SDS011;5217;43.960;10.954;2024-01-15T04:57:31;2.10;;;2.00;;
10343;SDS011;5217;43.960;10.954;2024-01-15T04:59:59;2.97;;;2.17;;
10343;SDS011;5217;43.960;10.954;2024-01-15T05:02:29;3.70;;;2.07;;
10343;SDS011;5217;43.960;10.954;2024-01-15T05:04:58;3.43;;;2.40;;
10343;SDS011;5217;43.960;10.954;2024-01-15T05:07:26;3.23;;;2.93;;
10343;SDS011;5217;43.960;10.954;2024-01-15T05:09:55;3.27;;;2.60;;
10343;SDS011;5217;43.960;10.954;2024-01-15T05:12:24;3.23;;;2.73;;
10343;SDS011;5217;43.960;10.954;2024-01-15T05:14:53;5.10;;;2.27;;
10343;SDS011;5217;43.960;10.954;2024-01-15T05:17:21;3.37;;;3.00;;
10343;SDS011;5217;43.960;10.954;2024-01-15T05:19:51;3.50;;;3.20;;
10343;SDS011;5217;43.960;10.954;2024-01-15T05:22:20;3.73;;;3.40;;
10343;SDS011;5217;43.960;10.954;2024-01-15T05:24:51;3.90;;;3.10;;
10343;SDS011;5217;43.960;10.954;2024-01-15T05:27:20;3.60;;;3.30;;
10343;SDS011;5217;43.960;10.954;2024-01-15T05:29:48;3.63;;;3.33;;
10343;SDS011;5217;43.960;10.954;2024-01-15T05:32:17;3.77;;;3.47;;
10343;SDS011;5217;43.960;10.954;2024-01-15T05:34:46;3.43;;;3.13;;
10343;SDS011;5217;43.960;10.954;2024-01-15T05:37:16;2.97;;;2.70;;
10343;SDS011;5217;43.960;10.954;2024-01-15T05:39:44;3.93;;;3.00;;
10343;SDS011;5217;43.960;10.954;2024-01-15T05:42:12;3.07;;;2.87;;
10343;SDS011;5217;43.960;10.954;2024-01-15T05:44:41;3.00;;;2.70;;
10343;SDS011;5217;43.960;10.954;2024-01-15T05:47:10;2.70;;;2.50;;
10343;SDS011;5217;43.960;10.954;2024-01-15T05:49:39;3.80;;;2.60;;
10343;SDS011;5217;43.960;10.954;2024-01-15T05:52:07;3.37;;;2.70;;
10343;SDS011;5217;43.960;10.954;2024-01-15T05:54:37;3.27;;;2.53;;
10343;SDS011;5217;43.960;10.954;2024-01-15T05:57:06;4.63;;;2.90;;
10343;SDS011;5217;43.960;10.954;2024-01-15T05:59:35;3.40;;;3.10;;
10343;SDS011;5217;43.960;10.954;2024-01-15T06:02:04;3.37;;;3.10;;
10343;SDS011;5217;43.960;10.954;2024-01-15T06:04:33;3.90;;;3.57;;
10343;SDS011;5217;43.960;10.954;2024-01-15T06:07:02;4.43;;;4.03;;
10343;SDS011;5217;43.960;10.954;2024-01-15T06:09:31;4.00;;;3.70;;
10343;SDS011;5217;43.960;10.954;2024-01-15T06:12:01;4.03;;;3.73;;
10343;SDS011;5217;43.960;10.954;2024-01-15T06:14:30;8.37;;;4.90;;
10343;SDS011;5217;43.960;10.954;2024-01-15T06:16:59;6.60;;;5.67;;
10343;SDS011;5217;43.960;10.954;2024-01-15T06:19:27;7.10;;;6.30;;
10343;SDS011;5217;43.960;10.954;2024-01-15T06:21:56;7.73;;;7.03;;
10343;SDS011;5217;43.960;10.954;2024-01-15T06:24:25;7.37;;;6.67;;
10343;SDS011;5217;43.960;10.954;2024-01-15T06:26:54;7.07;;;6.37;;
10343;SDS011;5217;43.960;10.954;2024-01-15T06:29:25;6.90;;;6.30;;
10343;SDS011;5217;43.960;10.954;2024-01-15T06:31:54;6.47;;;5.90;;
10343;SDS011;5217;43.960;10.954;2024-01-15T06:34:22;6.00;;;5.50;;
10343;SDS011;5217;43.960;10.954;2024-01-15T06:36:51;6.10;;;5.50;;
10343;SDS011;5217;43.960;10.954;2024-01-15T06:39:20;5.73;;;5.17;;
10343;SDS011;5217;43.960;10.954;2024-01-15T06:41:49;5.30;;;4.80;;
10343;SDS011;5217;43.960;10.954;2024-01-15T06:44:18;5.63;;;4.63;;
10343;SDS011;5217;43.960;10.954;2024-01-15T06:46:49;4.53;;;3.80;;
10343;SDS011;5217;43.960;10.954;2024-01-15T06:49:18;4.13;;;3.77;;
10343;SDS011;5217;43.960;10.954;2024-01-15T06:51:47;4.33;;;3.93;;
10343;SDS011;5217;43.960;10.954;2024-01-15T06:54:15;5.33;;;4.03;;
10343;SDS011;5217;43.960;10.954;2024-01-15T06:56:44;6.30;;;4.63;;
10343;SDS011;5217;43.960;10.954;2024-01-15T06:59:12;5.37;;;4.93;;
10343;SDS011;5217;43.960;10.954;2024-01-15T07:01:45;6.40;;;5.90;;
10343;SDS011;5217;43.960;10.954;2024-01-15T07:04:15;7.30;;;6.60;;
10343;SDS011;5217;43.960;10.954;2024-01-15T07:06:44;8.50;;;7.70;;
10343;SDS011;5217;43.960;10.954;2024-01-15T07:09:15;9.30;;;8.43;;
10343;SDS011;5217;43.960;10.954;2024-01-15T07:11:44;8.97;;;8.17;;
10343;SDS011;5217;43.960;10.954;2024-01-15T07:14:14;9.70;;;8.70;;
10343;SDS011;5217;43.960;10.954;2024-01-15T07:16:43;11.17;;;10.03;;
10343;SDS011;5217;43.960;10.954;2024-01-15T07:19:15;11.80;;;10.80;;
10343;SDS011;5217;43.960;10.954;2024-01-15T07:21:44;12.50;;;11.37;;
10343;SDS011;5217;43.960;10.954;2024-01-15T07:24:13;11.23;;;10.23;;
10343;SDS011;5217;43.960;10.954;2024-01-15T07:26:41;12.53;;;11.33;;
10343;SDS011;5217;43.960;10.954;2024-01-15T07:29:10;11.80;;;10.73;;
10343;SDS011;5217;43.960;10.954;2024-01-15T07:31:38;10.20;;;9.20;;
10343;SDS011;5217;43.960;10.954;2024-01-15T07:34:07;9.93;;;9.03;;
10343;SDS011;5217;43.960;10.954;2024-01-15T07:36:37;9.87;;;9.07;;
10343;SDS011;5217;43.960;10.954;2024-01-15T07:39:06;9.63;;;8.83;;
10343;SDS011;5217;43.960;10.954;2024-01-15T07:41:34;9.87;;;8.97;;
10343;SDS011;5217;43.960;10.954;2024-01-15T07:44:03;10.70;;;9.80;;
10343;SDS011;5217;43.960;10.954;2024-01-15T07:46:32;10.07;;;9.27;;
10343;SDS011;5217;43.960;10.954;2024-01-15T07:49:00;9.63;;;8.83;;
10343;SDS011;5217;43.960;10.954;2024-01-15T07:51:30;10.80;;;9.80;;
10343;SDS011;5217;43.960;10.954;2024-01-15T07:54:00;11.93;;;10.83;;
10343;SDS011;5217;43.960;10.954;2024-01-15T07:56:28;14.23;;;12.93;;
10343;SDS011;5217;43.960;10.954;2024-01-15T07:58:57;14.93;;;13.43;;
10343;SDS011;5217;43.960;10.954;2024-01-15T08:01:26;15.50;;;14.00;;
10343;SDS011;5217;43.960;10.954;2024-01-15T08:03:54;13.50;;;12.30;;
10343;SDS011;5217;43.960;10.954;2024-01-15T08:06:23;14.17;;;12.83;;
10343;SDS011;5217;43.960;10.954;2024-01-15T08:08:52;12.93;;;11.83;;
10343;SDS011;5217;43.960;10.954;2024-01-15T08:11:22;12.37;;;11.27;;
10343;SDS011;5217;43.960;10.954;2024-01-15T08:13:50;11.33;;;10.43;;
10343;SDS011;5217;43.960;10.954;2024-01-15T08:16:19;12.93;;;11.70;;
10343;SDS011;5217;43.960;10.954;2024-01-15T08:18:48;12.77;;;11.57;;
10343;SDS011;5217;43.960;10.954;2024-01-15T08:21:16;11.63;;;10.53;;
10343;SDS011;5217;43.960;10.954;2024-01-15T08:23:45;11.57;;;10.60;;
10343;SDS011;5217;43.960;10.954;2024-01-15T08:26:14;12.90;;;11.70;;
10343;SDS011;5217;43.960;10.954;2024-01-15T08:28:44;12.80;;;11.63;;
10343;SDS011;5217;43.960;10.954;2024-01-15T08:31:13;14.20;;;12.90;;
10343;SDS011;5217;43.960;10.954;2024-01-15T08:33:42;11.90;;;10.80;;
10343;SDS011;5217;43.960;10.954;2024-01-15T08:36:11;11.60;;;10.60;;
10343;SDS011;5217;43.960;10.954;2024-01-15T08:38:40;11.53;;;10.47;;
10343;SDS011;5217;43.960;10.954;2024-01-15T08:41:08;10.97;;;9.97;;
10343;SDS011;5217;43.960;10.954;2024-01-15T08:43:37;11.90;;;10.77;;
10343;SDS011;5217;43.960;10.954;2024-01-15T08:46:07;13.80;;;12.53;;
10343;SDS011;5217;43.960;10.954;2024-01-15T08:48:36;12.73;;;11.43;;
10343;SDS011;5217;43.960;10.954;2024-01-15T08:51:08;11.83;;;10.53;;
10343;SDS011;5217;43.960;10.954;2024-01-15T08:53:36;12.63;;;11.33;;
10343;SDS011;5217;43.960;10.954;2024-01-15T08:56:05;12.90;;;11.67;;
10343;SDS011;5217;43.960;10.954;2024-01-15T08:58:35;15.17;;;13.57;;
10343;SDS011;5217;43.960;10.954;2024-01-15T09:01:04;13.37;;;12.07;;
10343;SDS011;5217;43.960;10.954;2024-01-15T09:03:34;13.93;;;12.50;;
10343;SDS011;5217;43.960;10.954;2024-01-15T09:06:03;15.33;;;13.93;;
10343;SDS011;5217;43.960;10.954;2024-01-15T09:08:33;17.23;;;15.73;;
10343;SDS011;5217;43.960;10.954;2024-01-15T09:11:02;19.93;;;18.13;;
10343;SDS011;5217;43.960;10.954;2024-01-15T09:13:30;20.87;;;18.97;;
10343;SDS011;5217;43.960;10.954;2024-01-15T09:15:59;20.93;;;19.03;;
10343;SDS011;5217;43.960;10.954;2024-01-15T09:18:29;22.50;;;20.50;;
10343;SDS011;5217;43.960;10.954;2024-01-15T09:21:00;21.50;;;19.60;;
10343;SDS011;5217;43.960;10.954;2024-01-15T09:23:30;21.10;;;19.20;;
10343;SDS011;5217;43.960;10.954;2024-01-15T09:25:58;21.90;;;20.00;;
10343;SDS011;5217;43.960;10.954;2024-01-15T09:28:27;23.47;;;21.37;;
10343;SDS011;5217;43.960;10.954;2024-01-15T09:30:56;22.57;;;20.47;;
10343;SDS011;5217;43.960;10.954;2024-01-15T09:33:25;24.53;;;22.23;;
10343;SDS011;5217;43.960;10.954;2024-01-15T09:35:53;25.23;;;22.93;;
10343;SDS011;5217;43.960;10.954;2024-01-15T09:38:23;21.83;;;19.93;;
10343;SDS011;5217;43.960;10.954;2024-01-15T09:40:52;21.83;;;19.93;;
10343;SDS011;5217;43.960;10.954;2024-01-15T09:43:21;19.97;;;18.17;;
10343;SDS011;5217;43.960;10.954;2024-01-15T09:45:49;19.53;;;17.87;;
10343;SDS011;5217;43.960;10.954;2024-01-15T09:48:19;22.27;;;20.27;;
10343;SDS011;5217;43.960;10.954;2024-01-15T09:50:47;27.23;;;24.73;;
10343;SDS011;5217;43.960;10.954;2024-01-15T09:53:17;33.37;;;30.27;;
10343;SDS011;5217;43.960;10.954;2024-01-15T09:55:48;48.03;;;43.23;;
10343;SDS011;5217;43.960;10.954;2024-01-15T09:58:18;53.20;;;48.10;;
10343;SDS011;5217;43.960;10.954;2024-01-15T10:00:52;48.17;;;43.67;;
10343;SDS011;5217;43.960;10.954;2024-01-15T10:03:22;42.90;;;38.80;;
10343;SDS011;5217;43.960;10.954;2024-01-15T10:05:50;37.30;;;33.80;;
10343;SDS011;5217;43.960;10.954;2024-01-15T10:08:19;33.10;;;30.00;;
10343;SDS011;5217;43.960;10.954;2024-01-15T10:10:51;42.27;;;38.37;;
10343;SDS011;5217;43.960;10.954;2024-01-15T10:13:19;29.53;;;26.87;;
10343;SDS011;5217;43.960;10.954;2024-01-15T10:15:50;21.83;;;19.83;;
10343;SDS011;5217;43.960;10.954;2024-01-15T10:18:18;17.80;;;16.20;;
10343;SDS011;5217;43.960;10.954;2024-01-15T10:20:47;16.53;;;14.93;;
10343;SDS011;5217;43.960;10.954;2024-01-15T10:23:16;18.53;;;16.83;;
10343;SDS011;5217;43.960;10.954;2024-01-15T10:25:45;16.17;;;14.67;;
10343;SDS011;5217;43.960;10.954;2024-01-15T10:28:15;14.93;;;13.63;;
10343;SDS011;5217;43.960;10.954;2024-01-15T10:30:44;16.47;;;15.07;;
10343;SDS011;5217;43.960;10.954;2024-01-15T10:33:13;16.27;;;14.83;;
10343;SDS011;5217;43.960;10.954;2024-01-15T10:35:44;15.90;;;14.50;;
10343;SDS011;5217;43.960;10.954;2024-01-15T10:38:13;14.43;;;13.23;;
10343;SDS011;5217;43.960;10.954;2024-01-15T10:40:44;14.20;;;13.00;;
10343;SDS011;5217;43.960;10.954;2024-01-15T10:43:13;14.17;;;12.87;;
10343;SDS011;5217;43.960;10.954;2024-01-15T10:45:43;12.87;;;11.67;;
10343;SDS011;5217;43.960;10.954;2024-01-15T10:48:13;13.27;;;12.17;;
10343;SDS011;5217;43.960;10.954;2024-01-15T10:50:42;13.17;;;12.00;;
10343;SDS011;5217;43.960;10.954;2024-01-15T10:53:12;12.47;;;11.37;;
10343;SDS011;5217;43.960;10.954;2024-01-15T10:55:42;12.70;;;11.60;;
10343;SDS011;5217;43.960;10.954;2024-01-15T10:58:12;12.43;;;11.33;;
10343;SDS011;5217;43.960;10.954;2024-01-15T11:00:44;14.13;;;12.83;;
10343;SDS011;5217;43.960;10.954;2024-01-15T11:03:13;12.83;;;11.73;;
10343;SDS011;5217;43.960;10.954;2024-01-15T11:05:43;12.50;;;11.40;;
10343;SDS011;5217;43.960;10.954;2024-01-15T11:08:12;12.13;;;11.03;;
10343;SDS011;5217;43.960;10.954;2024-01-15T11:10:45;12.97;;;11.83;;
10343;SDS011;5217;43.960;10.954;2024-01-15T11:13:19;14.03;;;12.70;;
10343;SDS011;5217;43.960;10.954;2024-01-15T11:16:01;14.20;;;12.90;;
10343;SDS011;5217;43.960;10.954;2024-01-15T11:18:31;13.80;;;12.60;;
10343;SDS011;5217;43.960;10.954;2024-01-15T11:21:20;13.37;;;12.20;;
10343;SDS011;5217;43.960;10.954;2024-01-15T11:23:50;13.33;;;12.13;;
10343;SDS011;5217;43.960;10.954;2024-01-15T11:26:27;12.87;;;11.63;;
10343;SDS011;5217;43.960;10.954;2024-01-15T11:29:00;13.53;;;12.33;;
10343;SDS011;5217;43.960;10.954;2024-01-15T11:37:26;13.40;;;12.10;;
10343;SDS011;5217;43.960;10.954;2024-01-15T11:39:59;11.75;;;10.65;;
10343;SDS011;5217;43.960;10.954;2024-01-15T11:42:30;11.05;;;10.05;;
10343;SDS011;5217;43.960;10.954;2024-01-15T11:44:59;11.38;;;9.05;;
10343;SDS011;5217;43.960;10.954;2024-01-15T11:50:38;7.55;;;6.60;;
10343;SDS011;5217;43.960;10.954;2024-01-15T11:53:13;7.55;;;6.78;;
10343;SDS011;5217;43.960;10.954;2024-01-15T11:55:46;8.85;;;7.00;;
10343;SDS011;5217;43.960;10.954;2024-01-15T11:58:16;8.43;;;6.82;;
10343;SDS011;5217;43.960;10.954;2024-01-15T12:00:45;9.50;;;7.85;;
10343;SDS011;5217;43.960;10.954;2024-01-15T12:03:17;10.30;;;7.60;;
10343;SDS011;5217;43.960;10.954;2024-01-15T12:05:49;11.40;;;7.80;;
10343;SDS011;5217;43.960;10.954;2024-01-15T12:08:20;12.10;;;9.35;;
10343;SDS011;5217;43.960;10.954;2024-01-15T12:10:49;10.85;;;8.48;;
10343;SDS011;5217;43.960;10.954;2024-01-15T12:13:18;11.13;;;9.00;;
10343;SDS011;5217;43.960;10.954;2024-01-15T12:15:48;11.30;;;9.88;;
10343;SDS011;5217;43.960;10.954;2024-01-15T12:18:19;9.73;;;8.73;;
10343;SDS011;5217;43.960;10.954;2024-01-15T12:20:48;9.77;;;8.60;;
10343;SDS011;5217;43.960;10.954;2024-01-15T12:23:17;9.70;;;7.72;;
10343;SDS011;5217;43.960;10.954;2024-01-15T12:25:45;9.65;;;7.60;;
10343;SDS011;5217;43.960;10.954;2024-01-15T12:28:15;8.35;;;7.47;;
10343;SDS011;5217;43.960;10.954;2024-01-15T12:30:46;8.65;;;7.40;;
10343;SDS011;5217;43.960;10.954;2024-01-15T12:33:19;9.23;;;7.28;;
10343;SDS011;5217;43.960;10.954;2024-01-15T12:35:48;10.05;;;8.95;;
10343;SDS011;5217;43.960;10.954;2024-01-15T12:38:20;9.98;;;8.77;;
10343;SDS011;5217;43.960;10.954;2024-01-15T12:40:49;12.18;;;9.45;;
10343;SDS011;5217;43.960;10.954;2024-01-15T12:43:18;12.07;;;10.75;;
10343;SDS011;5217;43.960;10.954;2024-01-15T12:45:47;12.23;;;10.65;;
10343;SDS011;5217;43.960;10.954;2024-01-15T12:48:14;11.73;;;9.57;;
10343;SDS011;5217;43.960;10.954;2024-01-15T12:50:46;10.98;;;8.40;;
10343;SDS011;5217;43.960;10.954;2024-01-15T12:53:15;10.25;;;8.10;;
10343;SDS011;5217;43.960;10.954;2024-01-15T12:55:44;10.65;;;7.57;;
10343;SDS011;5217;43.960;10.954;2024-01-15T12:58:13;11.18;;;9.77;;
10343;SDS011;5217;43.960;10.954;2024-01-15T13:00:46;11.38;;;8.95;;
10343;SDS011;5217;43.960;10.954;2024-01-15T13:03:14;9.32;;;7.60;;
10343;SDS011;5217;43.960;10.954;2024-01-15T13:05:44;11.82;;;9.65;;
10343;SDS011;5217;43.960;10.954;2024-01-15T13:08:14;13.20;;;8.10;;
10343;SDS011;5217;43.960;10.954;2024-01-15T13:10:43;12.65;;;7.35;;
10343;SDS011;5217;43.960;10.954;2024-01-15T13:13:11;11.27;;;8.27;;
10343;SDS011;5217;43.960;10.954;2024-01-15T13:15:40;12.32;;;8.52;;
10343;SDS011;5217;43.960;10.954;2024-01-15T13:18:09;11.40;;;8.32;;
10343;SDS011;5217;43.960;10.954;2024-01-15T13:20:39;8.88;;;7.97;;
10343;SDS011;5217;43.960;10.954;2024-01-15T13:23:08;9.90;;;8.90;;
10343;SDS011;5217;43.960;10.954;2024-01-15T13:25:39;11.20;;;8.23;;
10343;SDS011;5217;43.960;10.954;2024-01-15T13:28:08;10.35;;;8.90;;
10343;SDS011;5217;43.960;10.954;2024-01-15T13:30:36;10.23;;;8.57;;
10343;SDS011;5217;43.960;10.954;2024-01-15T13:33:05;12.38;;;9.05;;
10343;SDS011;5217;43.960;10.954;2024-01-15T13:35:35;12.73;;;10.23;;
10343;SDS011;5217;43.960;10.954;2024-01-15T13:38:04;11.77;;;9.13;;
10343;SDS011;5217;43.960;10.954;2024-01-15T13:40:32;15.90;;;12.50;;
10343;SDS011;5217;43.960;10.954;2024-01-15T13:43:02;14.43;;;11.57;;
10343;SDS011;5217;43.960;10.954;2024-01-15T13:45:35;11.82;;;8.65;;
10343;SDS011;5217;43.960;10.954;2024-01-15T13:48:04;7.80;;;6.78;;
10343;SDS011;5217;43.960;10.954;2024-01-15T13:50:34;8.90;;;5.93;;
10343;SDS011;5217;43.960;10.954;2024-01-15T13:53:03;9.27;;;6.93;;
10343;SDS011;5217;43.960;10.954;2024-01-15T13:55:32;12.13;;;9.15;;
10343;SDS011;5217;43.960;10.954;2024-01-15T13:58:02;11.05;;;8.02;;
10343;SDS011;5217;43.960;10.954;2024-01-15T14:00:33;12.27;;;8.65;;
10343;SDS011;5217;43.960;10.954;2024-01-15T14:03:02;11.93;;;8.43;;
10343;SDS011;5217;43.960;10.954;2024-01-15T14:05:31;12.38;;;8.77;;
10343;SDS011;5217;43.960;10.954;2024-01-15T14:08:00;12.73;;;9.05;;
10343;SDS011;5217;43.960;10.954;2024-01-15T14:10:30;12.43;;;9.40;;
10343;SDS011;5217;43.960;10.954;2024-01-15T14:12:59;12.55;;;9.77;;
10343;SDS011;5217;43.960;10.954;2024-01-15T14:15:30;12.55;;;11.35;;
10343;SDS011;5217;43.960;10.954;2024-01-15T14:17:58;13.98;;;12.52;;
10343;SDS011;5217;43.960;10.954;2024-01-15T14:20:28;14.93;;;12.70;;
10343;SDS011;5217;43.960;10.954;2024-01-15T14:22:57;14.82;;;12.73;;
10343;SDS011;5217;43.960;10.954;2024-01-15T14:25:26;14.95;;;12.57;;
10343;SDS011;5217;43.960;10.954;2024-01-15T14:27:55;13.23;;;11.23;;
10343;SDS011;5217;43.960;10.954;2024-01-15T14:30:25;13.65;;;10.98;;
10343;SDS011;5217;43.960;10.954;2024-01-15T14:32:55;11.80;;;10.60;;
10343;SDS011;5217;43.960;10.954;2024-01-15T14:35:24;14.15;;;10.32;;
10343;SDS011;5217;43.960;10.954;2024-01-15T14:37:53;11.93;;;10.68;;
10343;SDS011;5217;43.960;10.954;2024-01-15T14:40:21;11.98;;;10.77;;
10343;SDS011;5217;43.960;10.954;2024-01-15T14:42:50;13.15;;;10.65;;
10343;SDS011;5217;43.960;10.954;2024-01-15T14:45:19;13.02;;;11.40;;
10343;SDS011;5217;43.960;10.954;2024-01-15T14:47:48;12.82;;;10.18;;
10343;SDS011;5217;43.960;10.954;2024-01-15T14:50:18;14.48;;;9.93;;
10343;SDS011;5217;43.960;10.954;2024-01-15T14:52:47;11.73;;;10.00;;
10343;SDS011;5217;43.960;10.954;2024-01-15T14:55:16;11.77;;;9.45;;
10343;SDS011;5217;43.960;10.954;2024-01-15T14:57:44;10.30;;;9.27;;
10343;SDS011;5217;43.960;10.954;2024-01-15T15:00:13;12.45;;;10.93;;
10343;SDS011;5217;43.960;10.954;2024-01-15T15:02:43;13.80;;;12.00;;
10343;SDS011;5217;43.960;10.954;2024-01-15T15:05:12;14.07;;;11.20;;